Time;durP1;ratioP1;P1;durP2;ratioP2;P2;SDS_P1;SDS_P2;PMS_P1;PMS_P2;Temp;Humidity;BMP_temperature;BMP_pressure;BME280_temperature;BME280_humidity;BME280_pressure;Samples;Min_cycle;Max_cycle;Signal;HPM_P1;HPM_P2
2023/01/20 00:01:29;;;;;;;6.20;2.10;;;-3.00;99.90;;;;;;5046601;28;20041;-59
2023/01/20 00:03:57;;;;;;;7.22;2.40;;;-3.00;99.90;;;;;;5049259;28;20041;-59
2023/01/20 00:06:26;;;;;;;6.07;2.38;;;-3.10;99.90;;;;;;5048936;28;20062;-59
2023/01/20 00:08:56;;;;;;;6.47;2.60;;;-3.10;99.90;;;;;;5043600;28;20041;-59
2023/01/20 00:11:23;;;;;;;5.10;2.17;;;-3.10;99.90;;;;;;5024494;28;20046;-59
2023/01/20 00:13:58;;;;;;;4.78;2.40;;;-3.10;99.90;;;;;;5015367;28;20042;-59
2023/01/20 00:16:25;;;;;;;4.35;2.05;;;-3.10;99.90;;;;;;5036990;28;20497;-59
2023/01/20 00:18:53;;;;;;;5.28;2.42;;;-3.20;99.90;;;;;;5027932;28;20041;-58
2023/01/20 00:21:21;;;;;;;7.57;2.30;;;-3.10;99.90;;;;;;5026362;28;20056;-58
2023/01/20 00:23:48;;;;;;;5.00;2.00;;;-3.10;99.90;;;;;;5024324;28;20069;-59
2023/01/20 00:26:18;;;;;;;6.65;2.60;;;-3.10;99.90;;;;;;5029898;28;20053;-59
2023/01/20 00:28:45;;;;;;;4.40;2.05;;;-3.10;99.90;;;;;;5030104;28;20047;-58
2023/01/20 00:31:27;;;;;;;4.72;1.98;;;-3.10;99.90;;;;;;5028834;28;20048;-59
2023/01/20 00:33:57;;;;;;;5.78;2.13;;;-3.10;99.90;;;;;;5030322;28;20032;-59
2023/01/20 00:36:25;;;;;;;4.80;1.85;;;-3.10;99.90;;;;;;5028452;28;20088;-58
2023/01/20 00:38:52;;;;;;;5.00;2.05;;;-3.20;99.90;;;;;;5024823;28;20034;-58
2023/01/20 00:41:19;;;;;;;6.35;2.65;;;-3.10;99.90;;;;;;5029151;28;20172;-59
2023/01/20 00:43:46;;;;;;;4.55;2.47;;;-3.10;99.90;;;;;;5026819;28;20042;-59
2023/01/20 00:46:13;;;;;;;4.30;1.98;;;-3.10;99.90;;;;;;5012446;28;20099;-59
2023/01/20 00:48:40;;;;;;;4.65;1.83;;;-3.00;99.90;;;;;;5024471;28;20045;-58
2023/01/20 00:51:08;;;;;;;5.28;2.13;;;-3.00;99.90;;;;;;5024020;28;20559;-58
2023/01/20 00:53:35;;;;;;;5.72;2.08;;;-3.00;99.90;;;;;;5027529;28;20041;-59
2023/01/20 00:56:02;;;;;;;6.25;2.28;;;-3.00;99.90;;;;;;5015721;28;20494;-58
2023/01/20 00:58:28;;;;;;;6.95;2.33;;;-3.00;99.90;;;;;;5015587;28;20487;-58
2023/01/20 01:00:57;;;;;;;4.65;1.83;;;-3.00;99.90;;;;;;5037298;28;20064;-58
2023/01/20 01:03:26;;;;;;;4.45;2.00;;;-3.00;99.90;;;;;;5014360;28;20041;-59
2023/01/20 01:05:53;;;;;;;3.90;2.15;;;-3.00;99.90;;;;;;5011252;28;20080;-59
2023/01/20 01:08:20;;;;;;;8.27;2.25;;;-3.00;99.90;;;;;;5010658;28;20628;-58
2023/01/20 01:10:47;;;;;;;4.47;2.08;;;-3.10;99.90;;;;;;5025176;28;20069;-58
2023/01/20 01:13:14;;;;;;;5.03;1.98;;;-3.10;99.90;;;;;;5050105;28;20103;-57
2023/01/20 01:15:48;;;;;;;5.68;1.92;;;-3.00;99.90;;;;;;5050598;28;20460;-58
2023/01/20 01:18:15;;;;;;;5.55;2.17;;;-3.10;99.90;;;;;;5039507;28;20046;-59
2023/01/20 01:20:43;;;;;;;4.82;2.03;;;-3.10;99.90;;;;;;5051146;28;20041;-59
2023/01/20 01:23:11;;;;;;;4.03;1.83;;;-3.00;99.90;;;;;;5050238;28;20045;-59
2023/01/20 01:25:37;;;;;;;6.85;2.13;;;-3.10;99.90;;;;;;5045071;28;20046;-59
2023/01/20 01:28:04;;;;;;;4.50;1.95;;;-3.00;99.90;;;;;;5022405;28;20046;-58
2023/01/20 01:30:31;;;;;;;4.88;2.03;;;-3.10;99.90;;;;;;5028551;28;20572;-59
2023/01/20 01:33:43;;;;;;;5.00;2.00;;;-3.10;99.90;;;;;;5059340;22;20059;-62
2023/01/20 01:36:31;;;;;;;5.60;2.08;;;-3.10;99.90;;;;;;5040356;28;20053;-62
2023/01/20 01:38:58;;;;;;;4.25;2.60;;;-3.00;99.90;;;;;;5059769;28;20076;-64
2023/01/20 01:41:25;;;;;;;3.40;1.63;;;-2.90;99.90;;;;;;5062285;28;20501;-61
2023/01/20 01:43:59;;;;;;;4.40;2.20;;;-2.90;99.90;;;;;;5070761;28;20044;-61
2023/01/20 01:46:26;;;;;;;10.07;2.30;;;-2.90;99.90;;;;;;5053024;28;20101;-61
2023/01/20 01:48:53;;;;;;;5.45;2.47;;;-2.90;99.90;;;;;;5070099;28;20059;-63
2023/01/20 01:51:24;;;;;;;5.32;2.30;;;-2.90;99.90;;;;;;5069569;28;20439;-63
2023/01/20 01:53:57;;;;;;;5.38;2.17;;;-2.90;99.90;;;;;;5030733;28;20426;-63
2023/01/20 01:56:26;;;;;;;9.48;2.67;;;-2.90;99.90;;;;;;5051183;28;20506;-61
2023/01/20 01:58:57;;;;;;;6.15;3.03;;;-2.80;99.90;;;;;;5050440;28;20433;-63
2023/01/20 02:01:24;;;;;;;11.35;2.47;;;-2.80;99.90;;;;;;5050161;28;20049;-63
2023/01/20 02:03:58;;;;;;;7.80;2.70;;;-2.90;99.90;;;;;;5048175;28;20044;-63
2023/01/20 02:06:31;;;;;;;6.40;2.50;;;-2.80;99.90;;;;;;5030848;28;20493;-63
2023/01/20 02:09:00;;;;;;;5.22;2.47;;;-2.80;99.90;;;;;;5030912;28;20045;-63
2023/01/20 02:11:31;;;;;;;4.90;2.35;;;-2.80;99.90;;;;;;5029753;28;20099;-61
2023/01/20 02:13:58;;;;;;;5.18;2.20;;;-2.60;99.90;;;;;;5046963;28;20041;-61
2023/01/20 02:16:44;;;;;;;4.90;2.63;;;-2.80;99.90;;;;;;5050618;28;20448;-63
2023/01/20 02:19:28;;;;;;;7.32;2.67;;;-2.70;99.90;;;;;;5054174;28;20505;-63
2023/01/20 02:22:28;;;;;;;7.03;3.28;;;-2.70;99.90;;;;;;5057849;28;20092;-63
2023/01/20 02:25:21;;;;;;;5.03;2.45;;;-2.70;99.90;;;;;;5059493;28;20087;-63
2023/01/20 02:28:14;;;;;;;3.10;1.42;;;-2.70;99.90;;;;;;5043323;28;20037;-63
2023/01/20 02:30:43;;;;;;;6.18;2.25;;;-2.80;99.90;;;;;;5034133;28;20073;-63
2023/01/20 02:33:41;;;;;;;7.20;2.70;;;-2.80;99.90;;;;;;5052548;28;20087;-63
2023/01/20 02:36:12;;;;;;;5.72;2.53;;;-2.80;99.90;;;;;;5053925;28;20037;-63
2023/01/20 02:38:55;;;;;;;4.82;2.35;;;-2.80;99.90;;;;;;5053508;28;20079;-63
2023/01/20 02:41:47;;;;;;;7.40;2.95;;;-2.80;99.90;;;;;;5057662;28;20591;-63
2023/01/20 02:44:27;;;;;;;9.20;3.60;;;-2.80;99.90;;;;;;5073631;28;20105;-63
2023/01/20 02:47:03;;;;;;;12.32;3.90;;;-2.80;99.90;;;;;;5064688;28;20048;-64
2023/01/20 02:49:52;;;;;;;8.45;3.13;;;-2.80;99.90;;;;;;5073338;28;20132;-61
2023/01/20 02:52:25;;;;;;;9.23;3.72;;;-2.80;99.90;;;;;;5071908;28;20491;-63
2023/01/20 02:54:56;;;;;;;10.32;3.20;;;-2.80;99.90;;;;;;5066974;28;20040;-63
2023/01/20 02:57:47;;;;;;;5.55;2.72;;;-2.80;99.90;;;;;;5073303;28;20192;-63
2023/01/20 03:00:22;;;;;;;7.35;2.60;;;-2.80;99.90;;;;;;5073962;28;20036;-63
2023/01/20 03:02:51;;;;;;;6.85;3.20;;;-2.70;99.90;;;;;;5053166;28;20037;-63
2023/01/20 03:05:27;;;;;;;9.27;2.80;;;-2.80;99.90;;;;;;5053710;28;20069;-63
2023/01/20 03:07:55;;;;;;;6.15;3.15;;;-2.80;99.90;;;;;;5065143;28;20048;-63
2023/01/20 03:10:26;;;;;;;5.95;3.00;;;-2.70;99.90;;;;;;5073225;28;20086;-63
2023/01/20 03:13:04;;;;;;;8.38;3.53;;;-2.70;99.90;;;;;;5056800;28;20033;-63
2023/01/20 03:15:58;;;;;;;6.05;3.25;;;-2.70;99.90;;;;;;5072910;28;20072;-63
2023/01/20 03:18:28;;;;;;;9.02;2.95;;;-2.70;99.90;;;;;;5072540;28;20041;-63
2023/01/20 03:20:56;;;;;;;5.00;2.83;;;-2.70;99.90;;;;;;5053712;28;20045;-63
2023/01/20 03:23:26;;;;;;;7.90;3.58;;;-2.60;99.90;;;;;;5027206;28;20045;-63
2023/01/20 03:25:54;;;;;;;5.40;2.83;;;-2.60;99.90;;;;;;5053480;28;20126;-63
2023/01/20 03:28:21;;;;;;;5.75;2.50;;;-2.60;99.90;;;;;;5049771;28;20041;-63
2023/01/20 03:30:47;;;;;;;6.80;2.92;;;-2.60;99.90;;;;;;5035855;28;20044;-63
2023/01/20 03:33:16;;;;;;;8.60;2.97;;;-2.50;99.90;;;;;;5072444;28;20059;-63
2023/01/20 03:35:43;;;;;;;5.07;2.72;;;-2.60;99.90;;;;;;5069223;28;20082;-63
2023/01/20 03:38:10;;;;;;;;;;;-2.60;99.90;;;;;;5073201;28;20068;-64
2023/01/20 03:40:48;;;;;;;8.27;3.42;;;-2.60;99.90;;;;;;5072147;28;19920;-62
2023/01/20 03:43:23;;;;;;;5.43;2.88;;;-2.60;99.90;;;;;;5068541;28;20049;-63
2023/01/20 03:46:01;;;;;;;5.47;2.90;;;-2.60;99.90;;;;;;5072788;28;20064;-63
2023/01/20 03:48:39;;;;;;;5.65;3.08;;;-2.60;99.90;;;;;;5054036;28;20059;-61
2023/01/20 03:51:47;;;;;;;8.15;3.25;;;-2.60;99.90;;;;;;5047642;28;20034;-61
2023/01/20 03:54:20;;;;;;;6.90;3.20;;;-2.50;99.90;;;;;;4970188;28;20051;-64
2023/01/20 03:57:03;;;;;;;5.38;2.70;;;-1.50;99.90;;;;;;4970965;28;20141;-62
2023/01/20 03:59:33;;;;;;;7.50;3.00;;;-2.50;99.90;;;;;;5029764;28;20488;-63
2023/01/20 04:02:07;;;;;;;5.70;2.78;;;-2.40;99.90;;;;;;5054372;28;20044;-63
2023/01/20 04:04:40;;;;;;;5.35;2.35;;;-2.40;99.90;;;;;;5043602;28;20041;-63
2023/01/20 04:07:12;;;;;;;6.13;2.67;;;-2.40;99.90;;;;;;5048929;28;20045;-64
2023/01/20 04:09:44;;;;;;;6.15;2.28;;;-2.40;99.90;;;;;;5051784;28;20075;-63
2023/01/20 04:12:11;;;;;;;7.82;3.58;;;-2.40;99.90;;;;;;5046703;28;20076;-63
2023/01/20 04:14:38;;;;;;;6.53;3.33;;;-2.40;99.90;;;;;;5071962;28;20064;-63
2023/01/20 04:17:06;;;;;;;8.18;2.92;;;-2.50;99.90;;;;;;5040712;28;20076;-62
2023/01/20 04:19:33;;;;;;;9.30;3.67;;;-2.50;99.90;;;;;;5015052;28;20042;-63
2023/01/20 04:22:06;;;;;;;10.50;4.13;;;-2.50;99.90;;;;;;5039733;28;20045;-63
2023/01/20 04:24:52;;;;;;;8.88;4.40;;;-2.40;99.90;;;;;;5052197;28;20037;-63
2023/01/20 04:27:18;;;;;;;9.15;4.47;;;-2.50;99.90;;;;;;5035501;28;20084;-63
2023/01/20 04:29:45;;;;;;;6.47;3.22;;;-2.50;99.90;;;;;;5031422;28;20045;-63
2023/01/20 04:32:12;;;;;;;6.88;3.42;;;-2.60;99.90;;;;;;5057478;28;20406;-63
2023/01/20 04:34:39;;;;;;;8.90;4.35;;;-2.60;99.90;;;;;;5051205;28;20067;-62
2023/01/20 04:37:06;;;;;;;12.45;4.90;;;-2.60;99.90;;;;;;5039519;28;20467;-63
2023/01/20 04:39:32;;;;;;;10.75;4.55;;;-2.60;99.90;;;;;;5043161;28;20037;-63
2023/01/20 04:41:59;;;;;;;12.75;4.45;;;-2.60;99.90;;;;;;5036695;28;20060;-63
2023/01/20 04:44:26;;;;;;;7.95;4.05;;;-2.60;99.90;;;;;;5071615;28;20094;-63
2023/01/20 04:46:57;;;;;;;8.90;4.55;;;-2.60;99.90;;;;;;5047882;28;20064;-63
2023/01/20 04:49:24;;;;;;;8.90;4.57;;;-2.60;99.90;;;;;;5039856;28;20077;-63
2023/01/20 04:51:50;;;;;;;8.70;4.57;;;-2.60;99.90;;;;;;5050692;28;20032;-63
2023/01/20 04:54:17;;;;;;;7.65;3.55;;;-2.60;99.90;;;;;;5071075;28;20045;-63
2023/01/20 04:56:44;;;;;;;9.52;4.25;;;-2.50;99.90;;;;;;5045809;28;20060;-63
2023/01/20 04:59:11;;;;;;;11.40;4.82;;;-2.60;99.90;;;;;;5033200;28;20485;-63
2023/01/20 05:01:38;;;;;;;9.50;4.68;;;-2.60;99.90;;;;;;5050586;28;20505;-63
2023/01/20 05:04:04;;;;;;;8.77;4.43;;;-2.60;99.90;;;;;;5051376;28;20056;-63
2023/01/20 05:06:31;;;;;;;9.48;4.38;;;-2.60;99.90;;;;;;5041716;28;20498;-63
2023/01/20 05:08:58;;;;;;;11.73;4.10;;;-2.60;99.90;;;;;;5033283;28;20940;-63
2023/01/20 05:11:24;;;;;;;7.68;3.35;;;-2.60;99.90;;;;;;5060405;28;20400;-64
2023/01/20 05:13:51;;;;;;;7.55;3.90;;;-2.50;99.90;;;;;;5071002;28;20083;-61
2023/01/20 05:16:24;;;;;;;7.57;3.88;;;-2.60;99.90;;;;;;5051940;28;20072;-64
2023/01/20 05:18:51;;;;;;;9.55;4.00;;;-2.50;99.90;;;;;;5039796;28;20047;-63
2023/01/20 05:21:18;;;;;;;7.18;2.88;;;-2.60;99.90;;;;;;5031740;28;20149;-64
2023/01/20 05:23:44;;;;;;;12.60;3.40;;;-2.50;99.90;;;;;;5052981;28;20037;-64
2023/01/20 05:26:11;;;;;;;16.63;4.38;;;-2.60;99.90;;;;;;5041844;28;20045;-63
2023/01/20 05:28:38;;;;;;;7.03;3.17;;;-2.60;99.90;;;;;;5070942;28;20063;-63
2023/01/20 05:31:04;;;;;;;9.13;4.05;;;-2.60;99.90;;;;;;5056927;28;20548;-62
2023/01/20 05:33:31;;;;;;;14.30;4.28;;;-2.60;99.90;;;;;;5057974;28;20044;-63
2023/01/20 05:35:58;;;;;;;10.07;4.07;;;-2.60;99.90;;;;;;5056784;28;20076;-63
2023/01/20 05:38:25;;;;;;;8.55;4.45;;;-2.60;99.90;;;;;;5039908;28;20086;-63
2023/01/20 05:41:05;;;;;;;9.95;4.65;;;-2.60;99.90;;;;;;5043903;28;20065;-63
2023/01/20 05:43:32;;;;;;;9.65;4.40;;;-2.50;99.90;;;;;;5050684;28;20087;-64
2023/01/20 05:45:59;;;;;;;8.65;4.50;;;-2.50;99.90;;;;;;5043350;28;20087;-63
2023/01/20 05:48:26;;;;;;;12.60;5.10;;;-2.50;99.90;;;;;;5037887;28;20040;-63
2023/01/20 05:50:52;;;;;;;12.25;5.65;;;-2.50;99.90;;;;;;5070480;28;20044;-63
2023/01/20 05:53:19;;;;;;;7.68;3.88;;;-2.50;99.90;;;;;;5072012;28;20044;-62
2023/01/20 05:55:46;;;;;;;11.77;5.35;;;-2.50;99.90;;;;;;5061764;28;20084;-62
2023/01/20 05:58:13;;;;;;;12.80;4.85;;;-2.50;99.90;;;;;;5072094;28;20102;-62
2023/01/20 06:00:40;;;;;;;11.35;4.97;;;-2.50;99.90;;;;;;5036177;28;20049;-63
2023/01/20 06:03:07;;;;;;;11.48;4.93;;;-2.50;99.90;;;;;;5069416;28;20444;-64
2023/01/20 06:05:33;;;;;;;11.50;5.20;;;-2.50;99.90;;;;;;5064756;28;20037;-64
2023/01/20 06:08:00;;;;;;;10.90;5.00;;;-2.50;99.90;;;;;;5034578;28;20100;-62
2023/01/20 06:10:45;;;;;;;10.63;5.07;;;-2.70;99.90;;;;;;5046315;28;20033;-62
2023/01/20 06:13:12;;;;;;;10.57;4.78;;;-2.40;99.90;;;;;;5053468;28;20088;-63
2023/01/20 06:15:39;;;;;;;;;;;-2.30;99.90;;;;;;5052426;28;20095;-64
2023/01/20 06:18:05;;;;;;;14.95;7.53;;;-2.30;99.90;;;;;;5052105;28;19924;-62
2023/01/20 06:20:32;;;;;;;7.70;4.13;;;-2.30;99.90;;;;;;5060200;28;20121;-62
2023/01/20 06:22:59;;;;;;;8.85;4.65;;;-2.30;99.90;;;;;;5042457;28;20072;-62
2023/01/20 06:25:25;;;;;;;11.55;4.55;;;-2.30;99.90;;;;;;5017419;28;20041;-62
2023/01/20 06:27:52;;;;;;;12.00;5.63;;;-2.30;99.90;;;;;;5040868;28;20029;-62
2023/01/20 06:30:19;;;;;;;4.50;3.28;;;-2.30;99.90;;;;;;5045269;28;20049;-62
2023/01/20 06:32:47;;;;;;;13.13;5.75;;;-2.30;99.90;;;;;;5053189;28;20513;-62
2023/01/20 06:35:14;;;;;;;10.43;5.28;;;-2.30;99.90;;;;;;5035315;28;20041;-62
2023/01/20 06:37:41;;;;;;;11.50;5.53;;;-2.30;99.90;;;;;;5033860;28;20080;-63
2023/01/20 06:40:08;;;;;;;8.38;3.72;;;-2.30;99.90;;;;;;5068812;28;20040;-62
2023/01/20 06:42:35;;;;;;;11.30;4.72;;;-2.20;99.90;;;;;;5073228;28;20404;-63
2023/01/20 06:45:02;;;;;;;10.48;5.20;;;-2.20;99.90;;;;;;5073779;28;20074;-63
2023/01/20 06:47:29;;;;;;;11.13;5.38;;;-2.20;99.90;;;;;;5057214;28;20778;-64
2023/01/20 06:49:55;;;;;;;9.15;4.68;;;-2.20;99.90;;;;;;5053892;28;20130;-62
2023/01/20 06:52:22;;;;;;;14.70;5.95;;;-2.20;99.90;;;;;;5052617;28;20076;-62
2023/01/20 06:54:49;;;;;;;13.52;5.55;;;-2.20;99.90;;;;;;5052002;28;20052;-62
2023/01/20 06:57:16;;;;;;;18.63;7.82;;;-2.20;99.90;;;;;;5071038;28;20505;-62
2023/01/20 06:59:43;;;;;;;17.25;6.78;;;-2.20;99.90;;;;;;5073577;28;20090;-62
2023/01/20 07:02:11;;;;;;;12.23;4.95;;;-2.20;99.90;;;;;;5073508;28;20049;-62
2023/01/20 07:04:38;;;;;;;16.08;6.32;;;-2.20;99.90;;;;;;5069111;28;20413;-62
2023/01/20 07:07:05;;;;;;;14.70;7.28;;;-2.30;99.90;;;;;;5073128;28;20044;-63
2023/01/20 07:09:31;;;;;;;19.30;7.40;;;-2.30;99.90;;;;;;5073138;28;20080;-63
2023/01/20 07:11:58;;;;;;;27.40;11.35;;;-2.30;99.90;;;;;;5061546;28;20064;-64
2023/01/20 07:14:25;;;;;;;38.33;14.13;;;-2.30;99.90;;;;;;5062232;28;20444;-62
2023/01/20 07:16:51;;;;;;;24.75;10.82;;;-2.30;99.90;;;;;;5073079;28;20037;-62
2023/01/20 07:19:18;;;;;;;9.13;4.63;;;-2.30;99.90;;;;;;5071219;28;20416;-62
2023/01/20 07:21:45;;;;;;;15.43;6.63;;;-2.30;99.90;;;;;;5067209;28;20037;-64
2023/01/20 07:24:12;;;;;;;17.67;7.18;;;-2.30;99.90;;;;;;5072016;28;20045;-64
2023/01/20 07:26:39;;;;;;;12.93;6.00;;;-2.30;99.90;;;;;;5072953;28;20555;-64
2023/01/20 07:29:06;;;;;;;14.90;6.55;;;-2.30;99.90;;;;;;5062928;28;20497;-64
2023/01/20 07:31:33;;;;;;;11.23;5.65;;;-2.30;99.90;;;;;;5072393;28;20063;-63
2023/01/20 07:33:59;;;;;;;;;;;-2.20;99.90;;;;;;5073141;22;20126;-59
2023/01/20 07:36:26;;;;;;;12.77;5.60;;;-2.20;99.90;;;;;;5052207;28;19925;-59
2023/01/20 07:38:53;;;;;;;12.07;5.97;;;-2.20;99.90;;;;;;5044580;28;20099;-59
2023/01/20 07:41:21;;;;;;;19.75;6.85;;;-2.20;99.90;;;;;;5035505;28;20096;-59
2023/01/20 07:43:49;;;;;;;13.07;6.50;;;-2.20;99.90;;;;;;5021703;28;20046;-59
2023/01/20 07:46:17;;;;;;;15.02;6.47;;;-2.20;99.90;;;;;;5012741;28;20049;-59
2023/01/20 07:48:44;;;;;;;16.02;6.10;;;-2.20;99.90;;;;;;5015944;28;20053;-59
2023/01/20 07:51:13;;;;;;;10.80;5.05;;;-2.20;99.90;;;;;;5012460;28;20129;-59
2023/01/20 07:53:45;;;;;;;17.00;7.00;;;-2.10;99.90;;;;;;5011861;28;20050;-59
2023/01/20 07:56:24;;;;;;;14.98;6.80;;;-2.10;99.90;;;;;;5012896;28;20133;-59
2023/01/20 07:58:51;;;;;;;16.95;7.20;;;-2.00;99.90;;;;;;5024078;28;20426;-58
2023/01/20 08:01:23;;;;;;;13.85;6.35;;;-2.00;99.90;;;;;;5031882;28;20073;-59
2023/01/20 08:03:51;;;;;;;17.10;6.13;;;-1.90;99.90;;;;;;5032213;28;20046;-59
2023/01/20 08:06:21;;;;;;;10.82;6.20;;;-1.90;99.90;;;;;;5028536;28;20069;-59
2023/01/20 08:08:48;;;;;;;11.85;6.15;;;-1.90;99.90;;;;;;5012456;28;20066;-59
2023/01/20 08:11:17;;;;;;;13.60;6.25;;;-1.90;99.90;;;;;;5012150;28;20104;-59
2023/01/20 08:13:44;;;;;;;12.77;5.63;;;-1.80;99.90;;;;;;5015559;28;20045;-59
2023/01/20 08:16:13;;;;;;;14.60;6.47;;;-1.90;99.90;;;;;;5023012;28;20069;-59
2023/01/20 08:18:40;;;;;;;12.20;6.07;;;-1.80;99.90;;;;;;5032296;28;20045;-59
2023/01/20 08:21:14;;;;;;;;;;;-1.80;99.90;;;;;;5032378;28;20108;-59
2023/01/20 08:23:41;;;;;;;14.65;6.05;;;-1.80;99.90;;;;;;5029075;28;20289;-59
2023/01/20 08:26:08;;;;;;;13.85;6.03;;;-1.80;99.90;;;;;;5012130;28;20042;-59
2023/01/20 08:28:35;;;;;;;11.75;6.60;;;-1.70;99.90;;;;;;5012215;28;20119;-59
2023/01/20 08:31:11;;;;;;;12.27;6.20;;;-1.70;99.90;;;;;;5012566;28;20484;-59
2023/01/20 08:33:38;;;;;;;14.13;6.50;;;-1.60;99.90;;;;;;5017437;28;20045;-59
2023/01/20 08:36:12;;;;;;;13.48;6.07;;;-1.60;99.90;;;;;;5023431;28;20083;-59
2023/01/20 08:38:39;;;;;;;12.82;5.80;;;-1.50;99.90;;;;;;5018900;28;20037;-59
2023/01/20 08:41:26;;;;;;;15.13;6.63;;;-1.50;99.90;;;;;;5011918;28;20092;-59
2023/01/20 08:43:56;;;;;;;12.70;5.22;;;-1.50;99.90;;;;;;5012089;28;20046;-59
2023/01/20 08:46:23;;;;;;;14.60;6.90;;;-1.40;99.90;;;;;;5011172;28;20544;-59
2023/01/20 08:48:50;;;;;;;14.35;6.07;;;-1.30;99.90;;;;;;5011881;28;20061;-59
2023/01/20 08:51:19;;;;;;;;;;;-1.20;99.90;;;;;;5011641;28;20076;-59
2023/01/20 08:53:46;;;;;;;15.15;6.45;;;-1.10;99.90;;;;;;5011404;28;20012;-59
2023/01/20 08:56:13;;;;;;;13.27;6.57;;;-1.00;99.90;;;;;;5018266;28;20069;-59
2023/01/20 08:58:40;;;;;;;14.88;7.10;;;-0.90;99.90;;;;;;5011733;28;20046;-58
2023/01/20 09:01:08;;;;;;;;;;;-0.90;99.90;;;;;;5011092;28;20399;-59
2023/01/20 09:03:35;;;;;;;13.30;6.43;;;-0.80;99.90;;;;;;5010870;28;19921;-59
2023/01/20 09:06:03;;;;;;;15.32;6.55;;;-0.70;99.90;;;;;;5010678;28;20107;-59
2023/01/20 09:08:29;;;;;;;14.60;6.65;;;-0.50;99.90;;;;;;5014963;28;20532;-59
2023/01/20 09:11:08;;;;;;;12.88;6.45;;;-0.60;99.90;;;;;;5015175;28;20045;-59
2023/01/20 09:13:35;;;;;;;12.77;6.07;;;-0.20;99.90;;;;;;5010843;28;20041;-59
2023/01/20 09:16:03;;;;;;;10.52;5.13;;;-0.10;99.90;;;;;;5011840;28;20084;-59
2023/01/20 09:18:34;;;;;;;11.30;5.75;;;0.00;99.90;;;;;;5015858;28;20042;-59
2023/01/20 09:21:05;;;;;;;12.23;6.20;;;0.20;99.90;;;;;;5010806;28;20495;-59
2023/01/20 09:23:37;;;;;;;12.63;6.50;;;0.30;99.90;;;;;;5010936;28;20042;-59
2023/01/20 09:26:06;;;;;;;9.43;5.47;;;0.50;99.90;;;;;;5011132;28;20476;-59
2023/01/20 09:28:33;;;;;;;13.35;5.00;;;0.60;99.90;;;;;;5011321;28;20379;-59
2023/01/20 09:31:04;;;;;;;;;;;0.60;99.90;;;;;;5011471;28;20453;-59
2023/01/20 09:33:31;;;;;;;12.60;5.93;;;0.60;99.90;;;;;;5010432;28;20444;-59
2023/01/20 09:35:58;;;;;;;10.73;4.38;;;0.60;99.90;;;;;;5009238;28;20096;-59
2023/01/20 09:44:53;;;;;;;14.98;7.25;;;0.20;99.90;;;;;;5010710;28;20076;-59
2023/01/20 09:47:40;;;;;;;16.00;7.65;;;0.10;99.90;;;;;;5018796;28;20414;-59
2023/01/20 09:53:16;;;;;;;17.83;8.48;;;0.20;99.90;;;;;;5029843;28;20083;-59
2023/01/20 09:55:48;;;;;;;22.00;9.18;;;0.20;99.90;;;;;;5025724;28;20437;-59
2023/01/20 09:58:55;;;;;;;32.65;14.27;;;0.10;99.90;;;;;;5014384;28;20120;-59
2023/01/20 10:01:29;;;;;;;15.00;7.65;;;0.00;99.90;;;;;;4949934;29;20083;-59
2023/01/20 10:04:19;;;;;;;14.23;7.55;;;0.00;99.90;;;;;;5017655;28;20072;-59
2023/01/20 10:06:52;;;;;;;12.55;7.05;;;0.00;99.90;;;;;;5022376;28;20038;-59
2023/01/20 10:09:36;;;;;;;15.50;8.30;;;0.00;99.90;;;;;;5030529;28;20046;-59
2023/01/20 10:12:25;;;;;;;13.55;6.50;;;0.10;99.90;;;;;;5027985;28;20050;-59
2023/01/20 10:15:40;;;;;;;12.30;6.20;;;0.20;99.90;;;;;;5018425;28;20486;-59
2023/01/20 10:18:33;;;;;;;14.23;5.38;;;0.40;99.90;;;;;;4969044;28;20073;-59
2023/01/20 10:21:28;;;;;;;14.35;6.28;;;0.60;99.90;;;;;;5019554;28;20077;-59
2023/01/20 10:24:10;;;;;;;14.07;6.35;;;0.60;99.90;;;;;;5014034;28;20054;-59
2023/01/20 10:26:49;;;;;;;9.02;4.22;;;0.70;99.90;;;;;;5011162;28;20046;-59
2023/01/20 10:29:25;;;;;;;10.90;4.82;;;0.70;99.90;;;;;;5029328;28;20533;-59
2023/01/20 10:32:00;;;;;;;13.20;6.45;;;0.50;99.90;;;;;;5025860;28;20072;-59
2023/01/20 10:34:43;;;;;;;11.82;5.90;;;0.60;99.90;;;;;;5018241;28;20073;-59
2023/01/20 10:37:11;;;;;;;10.27;5.50;;;0.60;99.90;;;;;;5010655;28;20050;-59
2023/01/20 10:39:41;;;;;;;;;;;0.70;99.90;;;;;;5012828;28;20046;-59
2023/01/20 10:42:14;;;;;;;12.25;5.68;;;0.60;99.90;;;;;;5013659;28;19960;-59
2023/01/20 10:44:42;;;;;;;12.23;5.65;;;0.50;99.90;;;;;;5013509;28;20072;-59
2023/01/20 10:47:27;;;;;;;12.02;6.32;;;0.60;99.90;;;;;;5014044;28;20095;-59
2023/01/20 10:50:12;;;;;;;12.13;6.40;;;0.60;99.90;;;;;;5013976;28;20062;-59
2023/01/20 10:52:53;;;;;;;13.45;5.53;;;0.70;99.90;;;;;;5012353;28;20077;-59
2023/01/20 10:55:38;;;;;;;10.00;5.43;;;0.70;99.90;;;;;;5013924;28;20073;-59
2023/01/20 10:58:05;;;;;;;9.05;5.32;;;0.80;99.90;;;;;;5013717;28;20034;-59
2023/01/20 11:00:32;;;;;;;13.93;6.13;;;0.80;99.90;;;;;;5013066;28;20518;-59
2023/01/20 11:03:00;;;;;;;;;;;0.80;99.90;;;;;;5014812;28;20054;-59
2023/01/20 11:05:30;;;;;;;8.30;4.28;;;0.70;99.90;;;;;;5013680;28;19971;-59
2023/01/20 11:07:59;;;;;;;12.13;5.60;;;0.70;99.90;;;;;;5013528;28;20111;-59
2023/01/20 11:10:28;;;;;;;11.00;6.13;;;0.80;99.90;;;;;;5017158;28;20565;-59
2023/01/20 11:13:00;;;;;;;12.18;6.35;;;0.80;99.90;;;;;;5017345;28;20132;-59
2023/01/20 11:15:32;;;;;;;10.75;5.93;;;0.90;99.90;;;;;;5012399;28;20050;-59
2023/01/20 11:18:14;;;;;;;10.45;5.95;;;1.00;99.90;;;;;;5012029;28;20121;-59
2023/01/20 11:20:49;;;;;;;11.90;6.80;;;1.00;99.90;;;;;;5017415;28;20042;-59
2023/01/20 11:23:38;;;;;;;12.57;6.38;;;1.00;99.90;;;;;;5012831;28;20574;-59
2023/01/20 11:26:09;;;;;;;12.40;6.35;;;1.10;99.90;;;;;;5012574;28;20092;-59
2023/01/20 11:28:51;;;;;;;11.30;5.65;;;1.10;99.90;;;;;;5017478;28;20066;-59
2023/01/20 11:31:19;;;;;;;11.57;5.78;;;1.00;99.90;;;;;;5011991;28;20108;-59
2023/01/20 11:34:00;;;;;;;11.63;6.50;;;1.00;99.90;;;;;;5015152;28;20030;-59
2023/01/20 11:36:27;;;;;;;10.55;5.53;;;1.00;99.90;;;;;;5025263;28;20042;-59
2023/01/20 11:38:56;;;;;;;8.60;5.72;;;0.90;99.90;;;;;;5031751;28;20065;-59
2023/01/20 11:41:28;;;;;;;10.57;5.50;;;1.00;99.90;;;;;;5030125;28;20121;-59
2023/01/20 11:43:59;;;;;;;15.43;7.00;;;1.00;99.90;;;;;;5016000;28;20042;-59
2023/01/20 11:46:35;;;;;;;11.52;6.25;;;1.10;99.90;;;;;;5012516;28;20096;-59
2023/01/20 11:49:21;;;;;;;15.35;6.47;;;1.10;99.90;;;;;;5012381;28;20075;-59
2023/01/20 11:51:55;;;;;;;13.50;6.22;;;1.10;99.90;;;;;;5021849;28;20056;-59
2023/01/20 11:54:25;;;;;;;12.70;5.65;;;1.10;99.90;;;;;;5032217;28;20052;-59
2023/01/20 11:57:03;;;;;;;11.95;5.80;;;1.30;99.90;;;;;;5032765;28;20041;-59
2023/01/20 11:59:33;;;;;;;13.27;6.38;;;1.30;99.90;;;;;;5027054;28;20049;-59
2023/01/20 12:02:06;;;;;;;12.13;5.45;;;1.30;99.90;;;;;;5012213;28;20042;-59
2023/01/20 12:04:35;;;;;;;13.68;5.70;;;1.30;99.90;;;;;;5012149;28;20112;-59
2023/01/20 12:07:13;;;;;;;12.20;5.50;;;1.20;99.90;;;;;;5012714;28;20049;-59
2023/01/20 12:09:43;;;;;;;;;;;1.10;99.90;;;;;;5016805;28;20487;-59
2023/01/20 12:12:31;;;;;;;10.52;5.90;;;1.20;99.90;;;;;;5011847;28;20060;-59
2023/01/20 12:15:12;;;;;;;14.35;6.38;;;1.30;99.90;;;;;;5012465;28;20459;-59
2023/01/20 12:17:53;;;;;;;11.98;6.18;;;1.30;99.90;;;;;;5012209;28;20042;-59
2023/01/20 12:20:44;;;;;;;10.88;5.70;;;1.30;99.90;;;;;;5012151;28;20568;-59
2023/01/20 12:23:46;;;;;;;10.85;5.40;;;1.60;99.90;;;;;;5013986;28;20046;-59
2023/01/20 12:26:16;;;;;;;12.40;5.80;;;1.90;99.90;;;;;;5020656;28;20037;-59
2023/01/20 12:29:06;;;;;;;11.55;5.38;;;2.00;99.90;;;;;;5012105;28;20054;-59
2023/01/20 12:31:33;;;;;;;15.13;5.28;;;2.20;99.90;;;;;;5011774;28;20100;-59
2023/01/20 12:34:09;;;;;;;14.82;6.18;;;2.20;99.90;;;;;;5018484;28;20041;-59
2023/01/20 12:36:49;;;;;;;12.70;5.72;;;2.30;99.90;;;;;;5012039;28;20038;-59
2023/01/20 12:39:40;;;;;;;9.65;5.00;;;2.20;99.90;;;;;;5011818;28;20107;-60
2023/01/20 12:42:24;;;;;;;14.80;5.82;;;2.10;99.90;;;;;;5011472;28;20077;-59
2023/01/20 12:45:02;;;;;;;9.18;4.90;;;1.70;99.90;;;;;;5011089;28;20495;-59
2023/01/20 12:47:47;;;;;;;5.97;3.38;;;1.80;99.90;;;;;;5012328;28;20445;-59
2023/01/20 12:50:28;;;;;;;9.38;4.18;;;1.70;99.90;;;;;;5011696;28;20468;-59
2023/01/20 12:53:25;;;;;;;11.85;4.60;;;1.80;99.90;;;;;;5014984;28;20057;-59
2023/01/20 12:56:08;;;;;;;7.25;2.72;;;1.90;99.90;;;;;;5025753;28;20045;-59
2023/01/20 12:58:52;;;;;;;6.00;3.65;;;1.90;99.90;;;;;;5011900;28;20034;-59
2023/01/20 13:01:41;;;;;;;9.32;4.15;;;1.80;99.90;;;;;;5010590;28;20088;-59
2023/01/20 13:04:47;;;;;;;5.50;2.90;;;1.70;99.90;;;;;;5014587;28;20061;-59
2023/01/20 13:07:52;;;;;;;8.02;3.70;;;1.50;99.90;;;;;;5014329;28;20095;-59
2023/01/20 13:10:56;;;;;;;7.55;4.00;;;1.40;99.90;;;;;;4970519;28;20115;-59
2023/01/20 13:13:29;;;;;;;7.68;4.00;;;1.40;99.90;;;;;;5018988;28;20120;-59
2023/01/20 13:16:21;;;;;;;9.27;5.07;;;1.40;99.90;;;;;;5019919;28;20181;-59
2023/01/20 13:19:12;;;;;;;10.65;5.18;;;1.30;99.90;;;;;;5028689;28;20042;-59
2023/01/20 13:21:41;;;;;;;9.13;5.10;;;1.30;99.90;;;;;;5019985;28;20045;-59
2023/01/20 13:24:27;;;;;;;10.32;5.05;;;1.30;99.90;;;;;;5018890;28;20100;-59
2023/01/20 13:26:56;;;;;;;11.07;5.32;;;1.30;99.90;;;;;;5028519;28;20518;-59